sensor_id;sensor_type;location;lat;lon;timestamp;pressure;altitude;pressure_sealevel;temperature;humidity
76374;BME280;65197;50.164;8.012;2023-05-10T00:00:11;94826.34;;;9.44;100.00
76374;BME280;65197;50.164;8.012;2023-05-10T00:02:37;94829.81;;;9.43;100.00
76374;BME280;65197;50.164;8.012;2023-05-10T00:05:03;94835.72;;;9.43;100.00
76374;BME280;65197;50.164;8.012;2023-05-10T00:07:28;94833.41;;;9.39;100.00
76374;BME280;65197;50.164;8.012;2023-05-10T00:09:54;94833.56;;;9.36;100.00
76374;BME280;65197;50.164;8.012;2023-05-10T00:12:19;94835.97;;;9.39;100.00
76374;BME280;65197;50.164;8.012;2023-05-10T00:14:45;94826.66;;;9.38;100.00
76374;BME280;65197;50.164;8.012;2023-05-10T00:17:10;94831.94;;;9.35;100.00
76374;BME280;65197;50.164;8.012;2023-05-10T00:19:35;94824.47;;;9.32;100.00
76374;BME280;65197;50.164;8.012;2023-05-10T00:22:01;94833.00;;;9.31;100.00
76374;BME280;65197;50.164;8.012;2023-05-10T00:24:26;94838.25;;;9.28;100.00
76374;BME280;65197;50.164;8.012;2023-05-10T00:26:52;94840.06;;;9.26;100.00
76374;BME280;65197;50.164;8.012;2023-05-10T00:29:18;94846.78;;;9.27;100.00
76374;BME280;65197;50.164;8.012;2023-05-10T00:31:44;94834.41;;;9.21;100.00
76374;BME280;65197;50.164;8.012;2023-05-10T00:34:10;94836.19;;;9.18;100.00
76374;BME280;65197;50.164;8.012;2023-05-10T00:36:35;94841.13;;;9.22;100.00
76374;BME280;65197;50.164;8.012;2023-05-10T00:39:00;94826.53;;;9.09;100.00
76374;BME280;65197;50.164;8.012;2023-05-10T00:41:26;94836.38;;;9.15;100.00
76374;BME280;65197;50.164;8.012;2023-05-10T00:43:51;94836.38;;;9.15;100.00
76374;BME280;65197;50.164;8.012;2023-05-10T00:46:16;94841.47;;;9.15;100.00
76374;BME280;65197;50.164;8.012;2023-05-10T00:48:43;94841.38;;;9.17;100.00
76374;BME280;65197;50.164;8.012;2023-05-10T00:51:08;94833.09;;;9.13;100.00
76374;BME280;65197;50.164;8.012;2023-05-10T00:53:34;94849.84;;;9.17;100.00
76374;BME280;65197;50.164;8.012;2023-05-10T00:56:00;94831.59;;;9.09;100.00
76374;BME280;65197;50.164;8.012;2023-05-10T00:58:27;94848.50;;;9.10;100.00
76374;BME280;65197;50.164;8.012;2023-05-10T01:00:55;94836.69;;;9.09;100.00
76374;BME280;65197;50.164;8.012;2023-05-10T01:03:21;94826.78;;;9.05;100.00
76374;BME280;65197;50.164;8.012;2023-05-10T01:05:46;94839.25;;;9.09;100.00
76374;BME280;65197;50.164;8.012;2023-05-10T01:08:12;94835.88;;;9.09;100.00
76374;BME280;65197;50.164;8.012;2023-05-10T01:10:37;94839.19;;;9.11;100.00
76374;BME280;65197;50.164;8.012;2023-05-10T01:13:03;94841.97;;;9.06;100.00
76374;BME280;65197;50.164;8.012;2023-05-10T01:15:28;94839.25;;;9.09;100.00
76374;BME280;65197;50.164;8.012;2023-05-10T01:17:55;94837.03;;;9.03;100.00
76374;BME280;65197;50.164;8.012;2023-05-10T01:20:21;94841.78;;;9.09;100.00
76374;BME280;65197;50.164;8.012;2023-05-10T01:23:09;94847.06;;;9.06;100.00
76374;BME280;65197;50.164;8.012;2023-05-10T01:26:03;94844.75;;;9.02;100.00
76374;BME280;65197;50.164;8.012;2023-05-10T01:34:09;94857.47;;;9.02;100.00
76374;BME280;65197;50.164;8.012;2023-05-10T01:36:47;94830.13;;;8.89;100.00
76374;BME280;65197;50.164;8.012;2023-05-10T01:39:28;94846.38;;;9.03;100.00
76374;BME280;65197;50.164;8.012;2023-05-10T01:42:08;94844.25;;;8.95;100.00
76374;BME280;65197;50.164;8.012;2023-05-10T01:44:37;94843.91;;;9.01;100.00
76374;BME280;65197;50.164;8.012;2023-05-10T01:47:10;94845.72;;;8.99;100.00
76374;BME280;65197;50.164;8.012;2023-05-10T01:50:03;94850.09;;;8.97;100.00
76374;BME280;65197;50.164;8.012;2023-05-10T01:52:41;94858.44;;;8.99;100.00
76374;BME280;65197;50.164;8.012;2023-05-10T01:55:09;94854.59;;;8.92;100.00
76374;BME280;65197;50.164;8.012;2023-05-10T01:57:37;94862.94;;;8.94;100.00
76374;BME280;65197;50.164;8.012;2023-05-10T02:00:09;94855.41;;;8.92;100.00
76374;BME280;65197;50.164;8.012;2023-05-10T02:02:37;94841.94;;;8.90;100.00
76374;BME280;65197;50.164;8.012;2023-05-10T02:05:05;94857.88;;;8.94;100.00
76374;BME280;65197;50.164;8.012;2023-05-10T02:07:32;94861.13;;;8.96;100.00
76374;BME280;65197;50.164;8.012;2023-05-10T02:09:59;94862.03;;;8.95;100.00
76374;BME280;65197;50.164;8.012;2023-05-10T02:12:26;94854.59;;;8.92;100.00
76374;BME280;65197;50.164;8.012;2023-05-10T02:14:53;94869.34;;;9.01;100.00
76374;BME280;65197;50.164;8.012;2023-05-10T02:17:19;94862.94;;;8.94;100.00
76374;BME280;65197;50.164;8.012;2023-05-10T02:19:47;94864.44;;;8.98;100.00
76374;BME280;65197;50.164;8.012;2023-05-10T02:22:13;94868.53;;;9.01;100.00
76374;BME280;65197;50.164;8.012;2023-05-10T02:24:40;94877.16;;;8.98;100.00
76374;BME280;65197;50.164;8.012;2023-05-10T02:27:06;94871.41;;;8.95;100.00
76374;BME280;65197;50.164;8.012;2023-05-10T02:29:33;94878.06;;;8.97;100.00
76374;BME280;65197;50.164;8.012;2023-05-10T02:31:59;94882.97;;;9.00;100.00
76374;BME280;65197;50.164;8.012;2023-05-10T02:34:28;94882.66;;;9.06;100.00
76374;BME280;65197;50.164;8.012;2023-05-10T02:36:54;94875.09;;;9.05;100.00
76374;BME280;65197;50.164;8.012;2023-05-10T02:39:21;94891.16;;;9.05;100.00
76374;BME280;65197;50.164;8.012;2023-05-10T02:41:48;94874.41;;;9.01;100.00
76374;BME280;65197;50.164;8.012;2023-05-10T02:44:17;94881.81;;;9.06;100.00
76374;BME280;65197;50.164;8.012;2023-05-10T02:46:43;94876.91;;;9.03;100.00
76374;BME280;65197;50.164;8.012;2023-05-10T02:49:09;94874.75;;;8.95;100.00
76374;BME280;65197;50.164;8.012;2023-05-10T02:51:38;94883.63;;;9.04;100.00
76374;BME280;65197;50.164;8.012;2023-05-10T02:54:18;94887.22;;;9.00;100.00
76374;BME280;65197;50.164;8.012;2023-05-10T02:56:59;94889.53;;;9.04;100.00
76374;BME280;65197;50.164;8.012;2023-05-10T02:59:26;94879.44;;;9.03;100.00
76374;BME280;65197;50.164;8.012;2023-05-10T03:01:51;94892.66;;;9.09;100.00
76374;BME280;65197;50.164;8.012;2023-05-10T03:04:17;94883.38;;;9.08;100.00
76374;BME280;65197;50.164;8.012;2023-05-10T03:06:43;94887.50;;;9.11;100.00
76374;BME280;65197;50.164;8.012;2023-05-10T03:09:09;94879.13;;;9.09;100.00
76374;BME280;65197;50.164;8.012;2023-05-10T03:17:00;94884.28;;;9.07;100.00
76374;BME280;65197;50.164;8.012;2023-05-10T03:19:43;94885.94;;;9.08;100.00
76374;BME280;65197;50.164;8.012;2023-05-10T03:22:10;94880.03;;;9.08;100.00
76374;BME280;65197;50.164;8.012;2023-05-10T03:24:39;94888.31;;;9.11;100.00
76374;BME280;65197;50.164;8.012;2023-05-10T03:27:07;94899.22;;;9.13;100.00
76374;BME280;65197;50.164;8.012;2023-05-10T03:29:33;94890.88;;;9.11;100.00
76374;BME280;65197;50.164;8.012;2023-05-10T03:31:58;94897.44;;;9.15;100.00
76374;BME280;65197;50.164;8.012;2023-05-10T03:34:25;94890.19;;;9.08;100.00
76374;BME280;65197;50.164;8.012;2023-05-10T03:36:51;94899.38;;;9.10;100.00
76374;BME280;65197;50.164;8.012;2023-05-10T03:39:16;94882.97;;;9.00;100.00
76374;BME280;65197;50.164;8.012;2023-05-10T03:41:41;94897.59;;;9.12;100.00
76374;BME280;65197;50.164;8.012;2023-05-10T03:44:07;94899.22;;;9.13;100.00
76374;BME280;65197;50.164;8.012;2023-05-10T03:46:32;94905.13;;;9.14;100.00
76374;BME280;65197;50.164;8.012;2023-05-10T03:48:58;94901.63;;;9.16;100.00
76374;BME280;65197;50.164;8.012;2023-05-10T03:51:23;94913.34;;;9.19;100.00
76374;BME280;65197;50.164;8.012;2023-05-10T03:53:53;94914.16;;;9.19;100.00
76374;BME280;65197;50.164;8.012;2023-05-10T03:56:18;94910.88;;;9.17;100.00
76374;BME280;65197;50.164;8.012;2023-05-10T03:58:43;94914.16;;;9.19;100.00
76374;BME280;65197;50.164;8.012;2023-05-10T04:01:09;94915.97;;;9.17;100.00
76374;BME280;65197;50.164;8.012;2023-05-10T04:03:35;94906.13;;;9.11;100.00
76374;BME280;65197;50.164;8.012;2023-05-10T04:06:01;94913.66;;;9.13;100.00
76374;BME280;65197;50.164;8.012;2023-05-10T04:08:27;94917.13;;;9.12;100.00
76374;BME280;65197;50.164;8.012;2023-05-10T04:10:53;94911.22;;;9.11;100.00
76374;BME280;65197;50.164;8.012;2023-05-10T04:13:18;94903.50;;;9.13;100.00
76374;BME280;65197;50.164;8.012;2023-05-10T04:15:44;94912.94;;;9.11;100.00
76374;BME280;65197;50.164;8.012;2023-05-10T04:18:09;94912.03;;;9.12;100.00
76374;BME280;65197;50.164;8.012;2023-05-10T04:20:35;94906.13;;;9.11;100.00
76374;BME280;65197;50.164;8.012;2023-05-10T04:23:00;94921.06;;;9.17;100.00
76374;BME280;65197;50.164;8.012;2023-05-10T04:25:25;94935.25;;;9.22;100.00
76374;BME280;65197;50.164;8.012;2023-05-10T04:27:51;94918.75;;;9.13;100.00
76374;BME280;65197;50.164;8.012;2023-05-10T04:30:17;94919.34;;;9.18;100.00
76374;BME280;65197;50.164;8.012;2023-05-10T04:32:42;94911.78;;;9.16;100.00
76374;BME280;65197;50.164;8.012;2023-05-10T04:35:08;94926.16;;;9.17;100.00
76374;BME280;65197;50.164;8.012;2023-05-10T04:37:35;94914.63;;;9.10;100.00
76374;BME280;65197;50.164;8.012;2023-05-10T04:40:01;94924.66;;;9.13;100.00
76374;BME280;65197;50.164;8.012;2023-05-10T04:42:28;94926.28;;;9.14;100.00
76374;BME280;65197;50.164;8.012;2023-05-10T04:44:53;94927.09;;;9.15;100.00
76374;BME280;65197;50.164;8.012;2023-05-10T04:47:19;94929.75;;;9.13;100.00
76374;BME280;65197;50.164;8.012;2023-05-10T04:49:44;94944.69;;;9.19;100.00
76374;BME280;65197;50.164;8.012;2023-05-10T04:52:09;94933.19;;;9.12;100.00
76374;BME280;65197;50.164;8.012;2023-05-10T04:54:35;94943.38;;;9.12;100.00
76374;BME280;65197;50.164;8.012;2023-05-10T04:57:00;94944.91;;;9.15;100.00
76374;BME280;65197;50.164;8.012;2023-05-10T04:59:26;94951.72;;;9.14;100.00
76374;BME280;65197;50.164;8.012;2023-05-10T05:01:51;94955.19;;;9.13;100.00
76374;BME280;65197;50.164;8.012;2023-05-10T05:04:17;94953.69;;;9.09;100.00
76374;BME280;65197;50.164;8.012;2023-05-10T05:06:42;94963.72;;;9.12;100.00
76374;BME280;65197;50.164;8.012;2023-05-10T05:09:08;94957.81;;;9.12;100.00
76374;BME280;65197;50.164;8.012;2023-05-10T05:11:35;94950.25;;;9.10;100.00
76374;BME280;65197;50.164;8.012;2023-05-10T05:14:00;94963.72;;;9.12;100.00
76374;BME280;65197;50.164;8.012;2023-05-10T05:16:26;94963.56;;;9.15;100.00
76374;BME280;65197;50.164;8.012;2023-05-10T05:18:53;94962.81;;;9.13;100.00
76374;BME280;65197;50.164;8.012;2023-05-10T05:21:19;94960.28;;;9.13;100.00
76374;BME280;65197;50.164;8.012;2023-05-10T05:23:45;94963.63;;;9.14;100.00
76374;BME280;65197;50.164;8.012;2023-05-10T05:26:10;94969.63;;;9.13;100.00
76374;BME280;65197;50.164;8.012;2023-05-10T05:28:36;94978.97;;;9.12;100.00
76374;BME280;65197;50.164;8.012;2023-05-10T05:31:06;94976.28;;;9.15;100.00
76374;BME280;65197;50.164;8.012;2023-05-10T05:33:33;94980.00;;;9.26;100.00
76374;BME280;65197;50.164;8.012;2023-05-10T05:36:00;94971.31;;;9.30;100.00
76374;BME280;65197;50.164;8.012;2023-05-10T05:38:26;94967.72;;;9.34;100.00
76374;BME280;65197;50.164;8.012;2023-05-10T05:40:51;94973.63;;;9.50;100.00
76374;BME280;65197;50.164;8.012;2023-05-10T05:43:17;94972.31;;;9.59;100.00
76374;BME280;65197;50.164;8.012;2023-05-10T05:45:42;94976.91;;;9.68;100.00
76374;BME280;65197;50.164;8.012;2023-05-10T05:48:07;94967.22;;;9.75;100.00
76374;BME280;65197;50.164;8.012;2023-05-10T05:50:33;94962.31;;;9.72;100.00
76374;BME280;65197;50.164;8.012;2023-05-10T05:52:58;94969.94;;;9.72;100.00
76374;BME280;65197;50.164;8.012;2023-05-10T05:55:23;94969.38;;;9.66;100.00
76374;BME280;65197;50.164;8.012;2023-05-10T05:57:50;94982.97;;;9.65;100.00
76374;BME280;65197;50.164;8.012;2023-05-10T06:00:16;94972.97;;;9.62;100.00
76374;BME280;65197;50.164;8.012;2023-05-10T06:02:42;94971.25;;;9.63;100.00
76374;BME280;65197;50.164;8.012;2023-05-10T06:05:07;94988.34;;;9.77;100.00
76374;BME280;65197;50.164;8.012;2023-05-10T06:07:33;94977.25;;;9.78;100.00
76374;BME280;65197;50.164;8.012;2023-05-10T06:09:59;94980.84;;;9.74;100.00
76374;BME280;65197;50.164;8.012;2023-05-10T06:12:24;94986.59;;;9.93;100.00
76374;BME280;65197;50.164;8.012;2023-05-10T06:14:49;94987.91;;;10.00;100.00
76374;BME280;65197;50.164;8.012;2023-05-10T06:17:15;94986.66;;;10.07;100.00
76374;BME280;65197;50.164;8.012;2023-05-10T06:19:40;94978.59;;;10.61;100.00
76374;BME280;65197;50.164;8.012;2023-05-10T06:22:06;94988.00;;;10.75;100.00
76374;BME280;65197;50.164;8.012;2023-05-10T06:24:31;94982.59;;;11.24;100.00
76374;BME280;65197;50.164;8.012;2023-05-10T06:26:56;94988.19;;;10.86;100.00
76374;BME280;65197;50.164;8.012;2023-05-10T06:29:25;94984.25;;;10.66;100.00
76374;BME280;65197;50.164;8.012;2023-05-10T06:31:50;94994.97;;;10.87;100.00
76374;BME280;65197;50.164;8.012;2023-05-10T06:34:16;94996.06;;;10.97;100.00
76374;BME280;65197;50.164;8.012;2023-05-10T06:36:41;94990.56;;;10.75;100.00
76374;BME280;65197;50.164;8.012;2023-05-10T06:39:06;95007.50;;;10.76;100.00
76374;BME280;65197;50.164;8.012;2023-05-10T06:41:32;95005.03;;;10.44;100.00
76374;BME280;65197;50.164;8.012;2023-05-10T06:43:58;95007.63;;;10.28;100.00
76374;BME280;65197;50.164;8.012;2023-05-10T06:46:23;95011.91;;;10.28;100.00
76374;BME280;65197;50.164;8.012;2023-05-10T06:48:48;95021.94;;;10.31;100.00
76374;BME280;65197;50.164;8.012;2023-05-10T06:51:14;95016.25;;;10.26;100.00
76374;BME280;65197;50.164;8.012;2023-05-10T06:53:39;95010.25;;;10.11;100.00
76374;BME280;65197;50.164;8.012;2023-05-10T06:56:04;95018.56;;;9.99;100.00
76374;BME280;65197;50.164;8.012;2023-05-10T06:58:30;95024.13;;;10.05;100.00
76374;BME280;65197;50.164;8.012;2023-05-10T07:01:05;95027.50;;;10.22;100.00
76374;BME280;65197;50.164;8.012;2023-05-10T07:03:31;95022.09;;;10.28;100.00
76374;BME280;65197;50.164;8.012;2023-05-10T07:06:05;95021.06;;;10.46;100.00
76374;BME280;65197;50.164;8.012;2023-05-10T07:08:33;95028.59;;;10.63;100.00
76374;BME280;65197;50.164;8.012;2023-05-10T07:11:06;95027.72;;;10.79;100.00
76374;BME280;65197;50.164;8.012;2023-05-10T07:13:33;95010.53;;;10.52;100.00
76374;BME280;65197;50.164;8.012;2023-05-10T07:15:59;95036.56;;;10.73;100.00
76374;BME280;65197;50.164;8.012;2023-05-10T07:18:25;95031.66;;;10.84;100.00
76374;BME280;65197;50.164;8.012;2023-05-10T07:20:51;95035.06;;;11.28;100.00
76374;BME280;65197;50.164;8.012;2023-05-10T07:23:16;95038.38;;;11.15;100.00
76374;BME280;65197;50.164;8.012;2023-05-10T07:25:49;95041.56;;;10.75;100.00
76374;BME280;65197;50.164;8.012;2023-05-10T07:28:16;95029.94;;;10.55;100.00
76374;BME280;65197;50.164;8.012;2023-05-10T07:30:42;95047.03;;;10.53;100.00
76374;BME280;65197;50.164;8.012;2023-05-10T07:33:08;95046.56;;;10.46;100.00
76374;BME280;65197;50.164;8.012;2023-05-10T07:35:35;95047.22;;;10.34;100.00
76374;BME280;65197;50.164;8.012;2023-05-10T07:38:00;95052.03;;;10.40;100.00
76374;BME280;65197;50.164;8.012;2023-05-10T07:40:26;95052.34;;;10.34;100.00
76374;BME280;65197;50.164;8.012;2023-05-10T07:42:51;95063.19;;;10.22;100.00
76374;BME280;65197;50.164;8.012;2023-05-10T07:45:17;95068.94;;;10.09;100.00
76374;BME280;65197;50.164;8.012;2023-05-10T07:47:42;95067.19;;;10.10;100.00
76374;BME280;65197;50.164;8.012;2023-05-10T07:50:08;95059.56;;;10.10;100.00
76374;BME280;65197;50.164;8.012;2023-05-10T07:52:33;95064.00;;;10.06;100.00
76374;BME280;65197;50.164;8.012;2023-05-10T07:54:59;95066.13;;;10.14;100.00
76374;BME280;65197;50.164;8.012;2023-05-10T07:57:24;95068.84;;;10.11;100.00
76374;BME280;65197;50.164;8.012;2023-05-10T07:59:50;95087.69;;;10.08;100.00
76374;BME280;65197;50.164;8.012;2023-05-10T08:02:15;95090.13;;;9.94;100.00
76374;BME280;65197;50.164;8.012;2023-05-10T08:04:41;95086.81;;;9.92;100.00
76374;BME280;65197;50.164;8.012;2023-05-10T08:07:06;95078.59;;;10.03;100.00
76374;BME280;65197;50.164;8.012;2023-05-10T08:09:32;95080.91;;;10.07;100.00
76374;BME280;65197;50.164;8.012;2023-05-10T08:11:58;95068.78;;;10.12;100.00
76374;BME280;65197;50.164;8.012;2023-05-10T08:14:24;95087.59;;;10.10;100.00
76374;BME280;65197;50.164;8.012;2023-05-10T08:16:49;95073.53;;;10.18;100.00
76374;BME280;65197;50.164;8.012;2023-05-10T08:19:15;95066.41;;;10.25;100.00
76374;BME280;65197;50.164;8.012;2023-05-10T08:21:44;95081.69;;;10.25;100.00
76374;BME280;65197;50.164;8.012;2023-05-10T08:24:09;95082.25;;;10.30;100.00
76374;BME280;65197;50.164;8.012;2023-05-10T08:26:35;95090.22;;;10.56;100.00
76374;BME280;65197;50.164;8.012;2023-05-10T08:29:00;95091.13;;;10.55;100.00
76374;BME280;65197;50.164;8.012;2023-05-10T08:31:26;95086.66;;;10.58;100.00
76374;BME280;65197;50.164;8.012;2023-05-10T08:33:51;95067.00;;;10.60;100.00
76374;BME280;65197;50.164;8.012;2023-05-10T08:36:17;95069.09;;;10.84;100.00
76374;BME280;65197;50.164;8.012;2023-05-10T08:38:46;95082.13;;;11.09;100.00
76374;BME280;65197;50.164;8.012;2023-05-10T08:41:12;95082.84;;;11.11;100.00
76374;BME280;65197;50.164;8.012;2023-05-10T08:43:38;95083.78;;;11.53;100.00
76374;BME280;65197;50.164;8.012;2023-05-10T08:46:07;95079.44;;;11.98;100.00
76374;BME280;65197;50.164;8.012;2023-05-10T08:48:34;95077.41;;;12.17;100.00
76374;BME280;65197;50.164;8.012;2023-05-10T08:51:00;95080.22;;;12.54;100.00
76374;BME280;65197;50.164;8.012;2023-05-10T08:53:28;95091.38;;;12.53;100.00
76374;BME280;65197;50.164;8.012;2023-05-10T08:55:55;95087.81;;;12.00;100.00
76374;BME280;65197;50.164;8.012;2023-05-10T08:58:20;95098.75;;;12.16;100.00
76374;BME280;65197;50.164;8.012;2023-05-10T09:00:48;95096.56;;;12.10;100.00
76374;BME280;65197;50.164;8.012;2023-05-10T09:03:14;95100.28;;;12.19;100.00
76374;BME280;65197;50.164;8.012;2023-05-10T09:05:41;95099.66;;;12.15;100.00
76374;BME280;65197;50.164;8.012;2023-05-10T09:08:08;95103.00;;;11.89;100.00
76374;BME280;65197;50.164;8.012;2023-05-10T09:10:34;95100.97;;;11.80;100.00
76374;BME280;65197;50.164;8.012;2023-05-10T09:13:00;95114.13;;;11.88;100.00
76374;BME280;65197;50.164;8.012;2023-05-10T09:15:25;95108.28;;;11.86;100.00
76374;BME280;65197;50.164;8.012;2023-05-10T09:17:51;95100.03;;;11.52;100.00
76374;BME280;65197;50.164;8.012;2023-05-10T09:20:16;95109.72;;;11.61;100.00
76374;BME280;65197;50.164;8.012;2023-05-10T09:22:45;95106.81;;;11.96;100.00
76374;BME280;65197;50.164;8.012;2023-05-10T09:25:15;95117.00;;;12.10;100.00
76374;BME280;65197;50.164;8.012;2023-05-10T09:27:43;95111.34;;;12.19;100.00
76374;BME280;65197;50.164;8.012;2023-05-10T09:30:10;95117.69;;;12.41;100.00
76374;BME280;65197;50.164;8.012;2023-05-10T09:32:41;95107.75;;;12.36;100.00
76374;BME280;65197;50.164;8.012;2023-05-10T09:35:11;95127.38;;;12.36;100.00
76374;BME280;65197;50.164;8.012;2023-05-10T09:37:38;95117.22;;;12.07;100.00
76374;BME280;65197;50.164;8.012;2023-05-10T09:40:07;95118.13;;;11.92;100.00
76374;BME280;65197;50.164;8.012;2023-05-10T09:42:34;95127.97;;;11.69;100.00
76374;BME280;65197;50.164;8.012;2023-05-10T09:45:01;95124.97;;;11.91;100.00
76374;BME280;65197;50.164;8.012;2023-05-10T09:47:27;95127.53;;;11.91;100.00
76374;BME280;65197;50.164;8.012;2023-05-10T09:49:52;95135.06;;;11.64;100.00
76374;BME280;65197;50.164;8.012;2023-05-10T09:52:18;95133.41;;;11.63;100.00
76374;BME280;65197;50.164;8.012;2023-05-10T09:54:53;95134.25;;;11.78;100.00
76374;BME280;65197;50.164;8.012;2023-05-10T09:57:24;95144.38;;;11.80;100.00
76374;BME280;65197;50.164;8.012;2023-05-10T09:59:50;95128.78;;;11.70;100.00
76374;BME280;65197;50.164;8.012;2023-05-10T10:02:16;95144.22;;;11.97;100.00
76374;BME280;65197;50.164;8.012;2023-05-10T10:04:42;95128.00;;;11.98;100.00
76374;BME280;65197;50.164;8.012;2023-05-10T10:07:08;95138.91;;;12.14;100.00
76374;BME280;65197;50.164;8.012;2023-05-10T10:09:34;95139.28;;;11.80;100.00
76374;BME280;65197;50.164;8.012;2023-05-10T10:12:03;95145.50;;;12.18;100.00
76374;BME280;65197;50.164;8.012;2023-05-10T10:14:29;95142.78;;;12.07;100.00
76374;BME280;65197;50.164;8.012;2023-05-10T10:16:55;95140.53;;;12.44;100.00
76374;BME280;65197;50.164;8.012;2023-05-10T10:19:21;95137.78;;;12.74;100.00
76374;BME280;65197;50.164;8.012;2023-05-10T10:21:47;95144.06;;;13.10;100.00
76374;BME280;65197;50.164;8.012;2023-05-10T10:24:13;95145.28;;;13.17;100.00
76374;BME280;65197;50.164;8.012;2023-05-10T10:26:38;95145.06;;;13.07;100.00
76374;BME280;65197;50.164;8.012;2023-05-10T10:29:52;95152.31;;;13.28;100.00
76374;BME280;65197;50.164;8.012;2023-05-10T10:32:26;95155.34;;;13.60;100.00
76374;BME280;65197;50.164;8.012;2023-05-10T10:34:54;95150.81;;;13.63;100.00
76374;BME280;65197;50.164;8.012;2023-05-10T10:37:20;95155.03;;;13.64;100.00
76374;BME280;65197;50.164;8.012;2023-05-10T10:39:48;95155.25;;;13.87;100.00
76374;BME280;65197;50.164;8.012;2023-05-10T10:42:14;95149.25;;;13.48;100.00
76374;BME280;65197;50.164;8.012;2023-05-10T10:44:39;95149.69;;;13.67;100.00
76374;BME280;65197;50.164;8.012;2023-05-10T10:49:49;95144.06;;;13.10;100.00
76374;BME280;65197;50.164;8.012;2023-05-10T10:55:18;95155.56;;;12.90;100.00
76374;BME280;65197;50.164;8.012;2023-05-10T10:57:52;95149.88;;;12.85;100.00
76374;BME280;65197;50.164;8.012;2023-05-10T11:00:31;95160.56;;;13.18;100.00
76374;BME280;65197;50.164;8.012;2023-05-10T11:03:06;95162.31;;;12.91;100.00
76374;BME280;65197;50.164;8.012;2023-05-10T11:05:48;95163.63;;;12.84;100.00
76374;BME280;65197;50.164;8.012;2023-05-10T11:08:19;95172.28;;;12.95;100.00
76374;BME280;65197;50.164;8.012;2023-05-10T11:13:42;95149.75;;;13.00;100.00
76374;BME280;65197;50.164;8.012;2023-05-10T11:16:22;95168.31;;;13.44;100.00
76374;BME280;65197;50.164;8.012;2023-05-10T11:18:53;95158.31;;;13.66;99.69
76374;BME280;65197;50.164;8.012;2023-05-10T11:21:19;95164.25;;;13.92;96.95
76374;BME280;65197;50.164;8.012;2023-05-10T11:23:54;95164.78;;;14.10;96.89
76374;BME280;65197;50.164;8.012;2023-05-10T11:26:31;95156.22;;;14.48;94.73
76374;BME280;65197;50.164;8.012;2023-05-10T11:28:57;95157.50;;;15.14;91.45
76374;BME280;65197;50.164;8.012;2023-05-10T11:31:25;95146.75;;;16.02;83.21
76374;BME280;65197;50.164;8.012;2023-05-10T11:33:56;95143.38;;;16.90;82.43
76374;BME280;65197;50.164;8.012;2023-05-10T11:36:27;95148.97;;;17.06;77.80
76374;BME280;65197;50.164;8.012;2023-05-10T11:38:53;95148.53;;;17.22;67.74
76374;BME280;65197;50.164;8.012;2023-05-10T11:41:20;95154.22;;;17.37;72.35
76374;BME280;65197;50.164;8.012;2023-05-10T11:43:57;95154.94;;;17.07;72.46
76374;BME280;65197;50.164;8.012;2023-05-10T11:46:27;95161.47;;;16.56;74.64
76374;BME280;65197;50.164;8.012;2023-05-10T11:48:57;95160.03;;;16.63;78.25
76374;BME280;65197;50.164;8.012;2023-05-10T11:51:24;95148.84;;;16.42;77.44
76374;BME280;65197;50.164;8.012;2023-05-10T11:53:52;95154.22;;;16.16;77.64
76374;BME280;65197;50.164;8.012;2023-05-10T11:56:18;95156.56;;;16.08;81.83
76374;BME280;65197;50.164;8.012;2023-05-10T11:58:43;95159.81;;;16.44;78.35
76374;BME280;65197;50.164;8.012;2023-05-10T12:01:09;95154.22;;;16.16;78.08
76374;BME280;65197;50.164;8.012;2023-05-10T12:03:36;95162.50;;;16.53;71.50
76374;BME280;65197;50.164;8.012;2023-05-10T12:06:02;95164.75;;;16.02;75.83
76374;BME280;65197;50.164;8.012;2023-05-10T12:08:29;95164.25;;;15.74;79.11
76374;BME280;65197;50.164;8.012;2023-05-10T12:11:05;95166.75;;;15.63;82.29
76374;BME280;65197;50.164;8.012;2023-05-10T12:13:30;95161.13;;;15.12;83.15
76374;BME280;65197;50.164;8.012;2023-05-10T12:15:59;95174.59;;;14.78;83.08
76374;BME280;65197;50.164;8.012;2023-05-10T12:18:25;95181.22;;;14.57;83.58
76374;BME280;65197;50.164;8.012;2023-05-10T12:20:53;95173.03;;;14.26;85.93
76374;BME280;65197;50.164;8.012;2023-05-10T12:23:19;95182.66;;;13.34;88.36
76374;BME280;65197;50.164;8.012;2023-05-10T12:25:45;95185.44;;;13.16;92.99
76374;BME280;65197;50.164;8.012;2023-05-10T12:28:10;95186.13;;;12.79;95.86
76374;BME280;65197;50.164;8.012;2023-05-10T12:30:36;95207.34;;;12.52;100.00
76374;BME280;65197;50.164;8.012;2023-05-10T12:33:09;95207.56;;;12.06;100.00
76374;BME280;65197;50.164;8.012;2023-05-10T12:35:46;95207.69;;;11.75;100.00
76374;BME280;65197;50.164;8.012;2023-05-10T12:41:00;95213.59;;;11.31;100.00
76374;BME280;65197;50.164;8.012;2023-05-10T12:43:26;95206.75;;;11.01;100.00
76374;BME280;65197;50.164;8.012;2023-05-10T12:45:52;95220.22;;;11.03;100.00
76374;BME280;65197;50.164;8.012;2023-05-10T12:48:17;95220.41;;;11.00;100.00
76374;BME280;65197;50.164;8.012;2023-05-10T12:50:43;95216.34;;;11.12;100.00
76374;BME280;65197;50.164;8.012;2023-05-10T12:53:08;95220.63;;;11.11;100.00
76374;BME280;65197;50.164;8.012;2023-05-10T12:55:34;95216.44;;;11.10;100.00
76374;BME280;65197;50.164;8.012;2023-05-10T12:57:59;95220.72;;;11.10;100.00
76374;BME280;65197;50.164;8.012;2023-05-10T13:00:25;95226.16;;;11.19;100.00
76374;BME280;65197;50.164;8.012;2023-05-10T13:02:50;95219.06;;;11.25;100.00
76374;BME280;65197;50.164;8.012;2023-05-10T13:05:15;95211.75;;;11.48;100.00
76374;BME280;65197;50.164;8.012;2023-05-10T13:07:41;95201.09;;;11.56;100.00
76374;BME280;65197;50.164;8.012;2023-05-10T13:10:07;95205.47;;;11.98;100.00
76374;BME280;65197;50.164;8.012;2023-05-10T13:12:32;95198.81;;;12.39;100.00
76374;BME280;65197;50.164;8.012;2023-05-10T13:14:58;95194.53;;;12.81;100.00
76374;BME280;65197;50.164;8.012;2023-05-10T13:17:25;95194.53;;;13.35;100.00